Time;durP1;ratioP1;P1;durP2;ratioP2;P2;SDS_P1;SDS_P2;PMS_P1;PMS_P2;Temp;Humidity;BMP_temperature;BMP_pressure;BME280_temperature;BME280_humidity;BME280_pressure;Samples;Min_cycle;Max_cycle;Signal;HPM_P1;HPM_P2
2021/12/20 00:01:45;;;;;;;26.40;4.80;;;7.20;99.90;;;;;;4994995;28;20045;-86
2021/12/20 00:04:11;;;;;;;21.88;4.38;;;6.40;99.90;;;;;;5010779;28;20041;-87
2021/12/20 00:06:37;;;;;;;27.35;5.10;;;7.20;99.90;;;;;;4978261;28;20061;-87
2021/12/20 00:09:04;;;;;;;20.60;4.65;;;6.50;99.90;;;;;;4989220;28;20043;-87
2021/12/20 00:11:29;;;;;;;21.90;3.95;;;7.50;99.90;;;;;;5006229;28;20053;-87
2021/12/20 00:13:55;;;;;;;22.45;4.40;;;6.90;99.90;;;;;;4978314;28;20046;-87
2021/12/20 00:16:21;;;;;;;23.02;4.47;;;7.40;99.90;;;;;;4997961;28;20120;-87
2021/12/20 00:18:47;;;;;;;20.20;4.13;;;7.30;99.90;;;;;;4970407;28;20088;-87
2021/12/20 00:21:12;;;;;;;18.90;4.25;;;6.50;99.90;;;;;;5014301;28;20164;-87
2021/12/20 00:23:38;;;;;;;23.08;3.92;;;6.40;99.90;;;;;;5014843;28;20041;-87
2021/12/20 00:26:04;;;;;;;22.85;4.53;;;6.40;99.90;;;;;;5014505;28;20044;-87
2021/12/20 00:28:30;;;;;;;20.67;4.22;;;6.40;99.90;;;;;;5015250;28;20460;-87
2021/12/20 00:30:56;;;;;;;26.88;4.32;;;6.40;99.90;;;;;;5007621;28;20053;-87
2021/12/20 00:33:22;;;;;;;21.13;4.05;;;7.80;99.90;;;;;;4995574;28;20096;-87
2021/12/20 00:35:49;;;;;;;18.65;3.30;;;6.40;99.90;;;;;;5029892;28;20271;-87
2021/12/20 00:40:59;;;;;;;18.95;3.47;;;7.00;99.90;;;;;;5016282;28;20041;-86
2021/12/20 00:43:26;;;;;;;23.08;4.25;;;6.30;99.90;;;;;;5015000;28;20041;-87
2021/12/20 00:45:51;;;;;;;20.50;4.45;;;6.50;99.90;;;;;;5029960;28;20045;-86
2021/12/20 00:48:17;;;;;;;17.73;3.28;;;6.20;99.90;;;;;;4995775;28;20064;-87
2021/12/20 00:50:44;;;;;;;19.23;2.85;;;6.10;99.90;;;;;;5011513;28;20407;-87
2021/12/20 00:53:12;;;;;;;17.45;3.55;;;6.10;99.90;;;;;;4998860;28;20068;-87
2021/12/20 00:55:39;;;;;;;20.27;3.55;;;7.50;99.90;;;;;;5009127;28;20034;-87
2021/12/20 00:58:05;;;;;;;23.48;3.55;;;6.10;99.90;;;;;;5015006;28;20069;-87
2021/12/20 01:00:40;;;;;;;21.17;3.90;;;7.50;99.90;;;;;;4997895;28;20100;-87
2021/12/20 01:03:08;;;;;;;18.10;4.03;;;6.10;99.90;;;;;;5014239;28;20037;-87
2021/12/20 01:05:34;;;;;;;20.38;4.10;;;6.30;99.90;;;;;;5012825;28;20092;-87
2021/12/20 01:08:04;;;;;;;19.33;3.80;;;7.20;99.90;;;;;;5014211;28;20421;-87
2021/12/20 01:10:30;;;;;;;15.57;3.38;;;6.00;99.90;;;;;;4996694;28;20312;-87
2021/12/20 01:12:59;;;;;;;20.23;3.88;;;6.00;99.90;;;;;;5013345;28;20121;-87
2021/12/20 01:15:37;;;;;;;21.50;3.85;;;6.90;99.90;;;;;;5030423;28;20045;-87
2021/12/20 01:18:04;;;;;;;22.15;3.53;;;5.90;99.90;;;;;;5013694;28;20076;-87
2021/12/20 01:20:31;;;;;;;18.00;3.50;;;5.90;99.90;;;;;;4998062;28;20072;-87
2021/12/20 01:22:57;;;;;;;22.42;3.60;;;5.80;99.90;;;;;;5031244;28;20053;-87
2021/12/20 01:25:23;;;;;;;18.42;3.40;;;6.00;99.90;;;;;;5013371;28;20486;-86
2021/12/20 01:27:50;;;;;;;22.48;3.47;;;5.80;99.90;;;;;;5013390;28;20057;-87
2021/12/20 01:30:18;;;;;;;16.10;3.97;;;6.00;99.90;;;;;;4997716;28;20041;-87
2021/12/20 01:32:44;;;;;;;17.95;3.05;;;7.10;99.90;;;;;;5013968;28;20045;-87
2021/12/20 01:35:11;;;;;;;16.58;3.05;;;6.50;99.90;;;;;;4997112;28;20033;-87
2021/12/20 01:37:36;;;;;;;16.58;2.72;;;5.70;99.90;;;;;;5029412;28;20038;-87
2021/12/20 01:40:04;;;;;;;13.98;3.13;;;6.40;99.90;;;;;;4997225;28;20041;-87
2021/12/20 01:42:33;;;;;;;17.88;3.28;;;5.60;99.90;;;;;;5011925;28;20564;-87
2021/12/20 01:44:59;;;;;;;16.63;3.30;;;5.50;99.90;;;;;;5030323;28;20264;-87
2021/12/20 01:47:32;;;;;;;14.80;2.90;;;7.00;99.90;;;;;;4997102;28;20564;-86
2021/12/20 01:50:06;;;;;;;17.20;3.00;;;5.50;99.90;;;;;;5013766;28;20497;-87
2021/12/20 01:52:40;;;;;;;15.52;3.50;;;5.50;99.90;;;;;;5010542;28;20038;-87
2021/12/20 01:55:08;;;;;;;14.45;2.88;;;5.40;99.90;;;;;;5013017;28;20044;-87
2021/12/20 01:57:34;;;;;;;14.15;2.65;;;5.40;99.90;;;;;;5013970;28;20185;-87
2021/12/20 02:00:01;;;;;;;15.50;2.85;;;6.40;99.90;;;;;;4994222;28;20061;-87
2021/12/20 02:02:26;;;;;;;15.35;2.50;;;5.30;99.90;;;;;;5013816;28;20045;-87
2021/12/20 02:05:00;;;;;;;18.30;2.80;;;5.30;99.90;;;;;;5029593;28;20516;-87
2021/12/20 02:10:19;;;;;;;14.52;2.60;;;5.80;99.90;;;;;;5002018;28;20478;-87
2021/12/20 02:12:46;;;;;;;18.40;3.13;;;5.10;99.90;;;;;;5004223;28;20091;-87
2021/12/20 02:15:12;;;;;;;12.40;2.38;;;5.10;99.90;;;;;;5012573;28;20042;-87
2021/12/20 02:17:41;;;;;;;12.70;2.30;;;5.00;99.90;;;;;;5012749;28;20112;-87
2021/12/20 02:20:07;;;;;;;16.50;3.17;;;5.90;99.90;;;;;;4994922;28;20074;-87
2021/12/20 02:22:34;;;;;;;13.30;2.40;;;4.90;99.90;;;;;;5013118;28;20053;-87
2021/12/20 02:25:00;;;;;;;13.73;2.72;;;4.90;99.90;;;;;;4995353;28;20072;-86
2021/12/20 02:27:25;;;;;;;12.23;2.20;;;4.90;99.90;;;;;;4979928;28;20072;-87
2021/12/20 02:38:20;;;;;;;11.02;2.10;;;4.60;99.90;;;;;;5027951;28;20048;-86
2021/12/20 02:40:46;;;;;;;13.77;2.60;;;5.40;99.90;;;;;;4991847;28;20125;-86
2021/12/20 02:43:16;;;;;;;16.63;2.67;;;4.60;99.90;;;;;;5012235;28;20103;-87
2021/12/20 02:45:43;;;;;;;12.82;2.28;;;4.60;99.90;;;;;;5012129;28;20117;-87
2021/12/20 02:48:08;;;;;;;15.00;2.60;;;5.40;99.90;;;;;;5012866;28;20045;-87
2021/12/20 02:50:34;;;;;;;13.02;2.72;;;4.60;99.90;;;;;;5012835;28;20049;-86
2021/12/20 02:53:00;;;;;;;12.30;2.35;;;4.60;99.90;;;;;;4996144;28;20043;-86
2021/12/20 02:55:26;;;;;;;13.52;2.50;;;4.60;99.90;;;;;;5028140;28;20040;-86
2021/12/20 02:57:51;;;;;;;17.83;2.40;;;5.10;99.90;;;;;;5011533;28;20045;-86
2021/12/20 03:00:17;;;;;;;12.30;2.10;;;5.60;99.90;;;;;;5010491;28;20083;-87
2021/12/20 03:02:43;;;;;;;14.75;2.70;;;4.60;99.90;;;;;;5009583;28;20144;-86
2021/12/20 03:05:10;;;;;;;16.27;2.78;;;5.90;99.90;;;;;;4994272;28;20038;-87
2021/12/20 03:07:49;;;;;;;17.23;3.30;;;4.60;99.90;;;;;;5012347;28;20120;-87
2021/12/20 03:10:16;;;;;;;15.27;2.88;;;5.00;99.90;;;;;;5011691;28;20050;-86
2021/12/20 03:12:42;;;;;;;12.77;2.80;;;4.60;99.90;;;;;;4991042;28;20497;-87
2021/12/20 03:15:14;;;;;;;14.27;3.10;;;5.60;99.90;;;;;;5010834;28;20049;-87
2021/12/20 03:17:39;;;;;;;20.88;3.05;;;4.60;99.90;;;;;;5004592;28;20052;-86
2021/12/20 03:20:06;;;;;;;17.65;2.97;;;5.90;99.90;;;;;;5010871;28;20041;-87
2021/12/20 03:22:32;;;;;;;13.60;2.97;;;4.50;99.90;;;;;;5011868;28;20110;-87
2021/12/20 03:24:58;;;;;;;13.57;2.60;;;4.90;99.90;;;;;;5012409;28;20514;-86
2021/12/20 03:27:24;;;;;;;12.75;2.55;;;5.20;99.90;;;;;;5011318;28;20077;-86
2021/12/20 03:29:50;;;;;;;13.43;3.03;;;5.00;99.90;;;;;;5022502;28;20073;-86
2021/12/20 03:32:16;;;;;;;16.60;3.10;;;5.50;99.90;;;;;;5011791;28;20056;-86
2021/12/20 03:34:41;;;;;;;10.50;2.63;;;4.20;99.90;;;;;;5028514;28;20562;-86
2021/12/20 03:37:07;;;;;;;12.25;2.33;;;5.50;99.90;;;;;;5011274;28;20048;-86
2021/12/20 03:39:33;;;;;;;11.02;2.75;;;4.10;99.90;;;;;;4995535;28;20044;-86
2021/12/20 03:42:00;;;;;;;14.75;2.70;;;4.00;99.90;;;;;;4994530;28;20092;-86
2021/12/20 03:44:26;;;;;;;14.23;2.85;;;4.20;99.90;;;;;;5012682;28;20026;-86
2021/12/20 03:46:52;;;;;;;13.77;2.90;;;3.90;99.90;;;;;;5011752;28;20469;-87
2021/12/20 03:49:17;;;;;;;14.10;2.58;;;3.80;99.90;;;;;;4995930;28;20065;-86
2021/12/20 03:51:43;;;;;;;16.02;3.28;;;4.90;99.90;;;;;;4995658;28;20129;-86
2021/12/20 03:54:09;;;;;;;16.02;2.72;;;3.80;99.90;;;;;;5006535;28;20037;-86
2021/12/20 03:56:34;;;;;;;12.25;2.30;;;3.70;99.90;;;;;;4983894;28;20037;-86
2021/12/20 03:59:01;;;;;;;13.70;2.58;;;4.80;99.90;;;;;;5001440;28;20045;-86
2021/12/20 04:01:27;;;;;;;11.20;2.47;;;4.30;99.90;;;;;;4994595;28;20052;-86
2021/12/20 04:03:53;;;;;;;14.18;2.70;;;3.60;99.90;;;;;;5007406;28;20048;-86
2021/12/20 04:06:19;;;;;;;14.02;2.33;;;4.30;99.90;;;;;;5004382;28;20033;-86
2021/12/20 04:08:46;;;;;;;15.70;2.60;;;4.60;99.90;;;;;;5004343;28;20095;-86
2021/12/20 04:11:12;;;;;;;10.80;2.20;;;4.70;99.90;;;;;;4980389;28;20040;-86
2021/12/20 04:13:37;;;;;;;9.80;2.00;;;4.80;99.90;;;;;;4995647;28;20037;-86
2021/12/20 04:16:04;;;;;;;14.07;2.85;;;4.80;99.90;;;;;;4999485;28;20041;-86
2021/12/20 04:18:30;;;;;;;15.32;2.65;;;3.40;99.90;;;;;;4999679;28;20045;-86
2021/12/20 04:20:56;;;;;;;10.05;2.15;;;3.30;99.90;;;;;;5015968;28;20057;-86
2021/12/20 04:23:22;;;;;;;10.80;2.30;;;3.30;99.90;;;;;;5001674;28;20072;-86
2021/12/20 04:25:48;;;;;;;11.65;2.45;;;4.50;99.90;;;;;;4996279;28;20110;-86
2021/12/20 04:28:13;;;;;;;12.15;2.20;;;3.30;99.90;;;;;;5012923;28;20524;-86
2021/12/20 04:30:39;;;;;;;12.02;2.42;;;3.20;99.90;;;;;;4988345;28;20041;-86
2021/12/20 04:33:05;;;;;;;14.65;2.40;;;3.20;99.90;;;;;;5007567;28;20048;-86
2021/12/20 04:35:31;;;;;;;14.35;2.67;;;3.10;99.90;;;;;;4982717;28;20129;-86
2021/12/20 04:37:59;;;;;;;12.25;2.75;;;3.10;99.90;;;;;;4999440;28;20037;-86
2021/12/20 04:40:25;;;;;;;12.60;2.83;;;3.00;99.90;;;;;;4994018;28;20041;-86
2021/12/20 04:42:56;;;;;;;11.77;2.65;;;4.10;99.90;;;;;;4996690;28;20517;-86
2021/12/20 04:45:23;;;;;;;15.18;2.80;;;2.90;99.90;;;;;;5003581;28;20564;-86
2021/12/20 04:47:49;;;;;;;15.65;2.78;;;2.90;99.90;;;;;;4982905;28;20187;-86
2021/12/20 04:50:16;;;;;;;14.48;2.50;;;2.80;99.90;;;;;;4982342;28;20049;-86
2021/12/20 04:52:42;;;;;;;14.45;2.47;;;2.90;99.90;;;;;;4998528;28;20037;-86
2021/12/20 04:55:10;;;;;;;12.90;2.30;;;2.70;99.90;;;;;;4983173;28;20403;-86
2021/12/20 04:57:36;;;;;;;12.80;2.08;;;2.60;99.90;;;;;;5000048;28;20072;-86
2021/12/20 05:00:09;;;;;;;14.27;2.80;;;2.60;99.90;;;;;;5005213;28;20088;-86
2021/12/20 05:02:35;;;;;;;12.88;2.60;;;2.60;99.90;;;;;;5014229;28;20045;-85
2021/12/20 05:05:01;;;;;;;12.68;2.50;;;2.50;99.90;;;;;;5013446;28;20104;-86
2021/12/20 05:07:27;;;;;;;13.38;2.42;;;2.50;99.90;;;;;;5014281;28;20047;-86
2021/12/20 05:09:58;;;;;;;12.20;2.65;;;4.30;99.90;;;;;;5014452;28;20045;-86
2021/12/20 05:12:24;;;;;;;9.88;2.20;;;4.00;99.90;;;;;;5013204;28;20045;-86
2021/12/20 05:14:50;;;;;;;10.73;2.30;;;2.40;99.90;;;;;;5025631;28;20038;-86
2021/12/20 05:17:15;;;;;;;12.02;2.55;;;3.70;99.90;;;;;;4981840;28;20124;-86
2021/12/20 05:19:42;;;;;;;12.05;2.50;;;2.40;99.90;;;;;;4984638;28;20418;-85
2021/12/20 05:22:09;;;;;;;12.32;2.38;;;2.40;99.90;;;;;;5031095;28;20041;-85
2021/12/20 05:24:35;;;;;;;12.77;2.20;;;2.30;99.90;;;;;;5013976;28;20045;-85
2021/12/20 05:27:01;;;;;;;11.27;2.50;;;2.30;99.90;;;;;;5013319;28;20034;-85
2021/12/20 05:29:27;;;;;;;14.43;2.55;;;2.30;99.90;;;;;;4994534;28;20034;-85
2021/12/20 05:31:53;;;;;;;13.93;2.50;;;2.20;99.90;;;;;;5012821;28;20394;-85
2021/12/20 05:34:19;;;;;;;10.45;2.20;;;2.20;99.90;;;;;;5006236;28;20171;-85
2021/12/20 05:36:45;;;;;;;10.80;2.25;;;2.20;99.90;;;;;;5029504;28;20483;-85
2021/12/20 05:39:11;;;;;;;15.18;2.38;;;2.20;99.90;;;;;;5006343;28;20041;-85
2021/12/20 05:41:37;;;;;;;12.55;2.47;;;3.20;99.90;;;;;;4989072;28;20117;-85
2021/12/20 05:44:03;;;;;;;10.73;2.22;;;2.10;99.90;;;;;;5013696;28;20179;-85
2021/12/20 05:46:28;;;;;;;11.10;2.10;;;2.20;99.90;;;;;;4980318;28;20123;-85
2021/12/20 05:48:54;;;;;;;10.70;2.58;;;2.10;99.90;;;;;;4997318;28;20037;-85
2021/12/20 05:51:20;;;;;;;12.68;2.28;;;3.60;99.90;;;;;;5011843;28;20034;-85
2021/12/20 05:53:45;;;;;;;14.45;2.78;;;2.00;99.90;;;;;;5045938;28;20571;-85
2021/12/20 05:56:11;;;;;;;16.88;2.42;;;2.00;99.90;;;;;;5042713;28;20026;-84
2021/12/20 05:58:37;;;;;;;10.68;2.22;;;2.00;99.90;;;;;;4994720;28;20127;-85
2021/12/20 06:01:03;;;;;;;13.77;2.67;;;2.00;99.90;;;;;;4964650;28;20060;-85
2021/12/20 06:03:29;;;;;;;16.15;2.60;;;3.00;99.90;;;;;;4982551;28;20041;-85
2021/12/20 06:05:54;;;;;;;15.43;2.25;;;3.10;99.90;;;;;;4964020;28;20052;-85
2021/12/20 06:08:20;;;;;;;13.18;2.30;;;2.80;99.90;;;;;;4972786;28;20073;-86
2021/12/20 06:10:46;;;;;;;13.35;2.60;;;2.40;99.90;;;;;;4998686;28;20037;-85
2021/12/20 06:13:12;;;;;;;14.98;2.80;;;1.90;99.90;;;;;;4979769;28;20498;-85
2021/12/20 06:15:37;;;;;;;10.57;2.15;;;2.40;99.90;;;;;;4979319;28;20052;-85
2021/12/20 06:18:03;;;;;;;13.10;2.40;;;1.90;99.90;;;;;;4996998;28;20045;-85
2021/12/20 06:20:29;;;;;;;14.50;2.97;;;1.90;99.90;;;;;;4979766;28;20045;-85
2021/12/20 06:22:54;;;;;;;19.95;3.17;;;1.80;99.90;;;;;;5000769;28;20433;-85
2021/12/20 06:25:21;;;;;;;13.13;2.30;;;1.80;99.90;;;;;;5012586;28;20107;-84
2021/12/20 06:27:49;;;;;;;13.43;2.80;;;1.80;99.90;;;;;;4994588;28;20041;-85
2021/12/20 06:30:15;;;;;;;15.75;2.65;;;1.80;99.90;;;;;;4980274;28;20495;-85
2021/12/20 06:32:43;;;;;;;12.50;2.80;;;0.30;99.90;;;;;;4996299;28;20048;-85
2021/12/20 06:35:09;;;;;;;15.68;3.08;;;1.80;99.90;;;;;;4977963;28;20045;-85
2021/12/20 06:37:36;;;;;;;11.50;2.45;;;1.80;99.90;;;;;;5013287;28;20060;-85
2021/12/20 06:40:03;;;;;;;14.18;2.97;;;1.80;99.90;;;;;;5012843;28;20116;-85
2021/12/20 06:42:29;;;;;;;15.55;2.60;;;1.70;99.90;;;;;;4996313;28;20510;-85
2021/12/20 06:44:55;;;;;;;14.25;2.65;;;3.10;99.90;;;;;;4986633;28;20160;-85
2021/12/20 06:47:21;;;;;;;12.82;3.10;;;1.70;99.90;;;;;;4996205;28;20041;-85
2021/12/20 06:49:47;;;;;;;14.10;3.15;;;1.70;99.90;;;;;;4996484;28;20125;-85
2021/12/20 06:52:13;;;;;;;18.00;3.60;;;1.70;99.90;;;;;;4980321;28;20038;-85
2021/12/20 06:54:39;;;;;;;18.88;3.58;;;1.60;99.90;;;;;;4979645;28;20116;-85
2021/12/20 06:57:04;;;;;;;19.27;3.20;;;2.50;99.90;;;;;;4978025;28;20120;-84
2021/12/20 06:59:30;;;;;;;15.00;3.00;;;3.00;99.90;;;;;;5004037;28;20516;-84
2021/12/20 07:01:59;;;;;;;17.98;2.58;;;1.50;99.90;;;;;;4989514;28;20072;-86
2021/12/20 07:04:24;;;;;;;14.50;2.85;;;1.50;99.90;;;;;;5013922;28;20064;-84
2021/12/20 07:06:52;;;;;;;15.38;2.97;;;3.00;99.90;;;;;;5000914;28;20494;-85
2021/12/20 07:09:17;;;;;;;12.13;2.83;;;2.60;99.90;;;;;;4995401;28;20037;-86
2021/12/20 07:11:44;;;;;;;12.25;2.67;;;1.40;99.90;;;;;;4973883;28;20029;-85
2021/12/20 07:14:11;;;;;;;12.18;2.67;;;1.40;99.90;;;;;;5011646;28;20048;-84
2021/12/20 07:16:40;;;;;;;15.68;2.85;;;1.90;99.90;;;;;;5006510;28;20084;-85
2021/12/20 07:19:06;;;;;;;15.00;2.95;;;1.40;99.90;;;;;;4996150;28;20505;-85
2021/12/20 07:21:32;;;;;;;14.98;2.70;;;1.40;99.90;;;;;;5028137;28;20387;-85
2021/12/20 07:23:57;;;;;;;10.95;2.50;;;1.40;99.90;;;;;;5027507;28;20056;-84
2021/12/20 07:26:23;;;;;;;14.52;2.72;;;1.40;99.90;;;;;;4989558;28;20198;-86
2021/12/20 07:28:49;;;;;;;12.18;2.60;;;2.90;99.90;;;;;;4995591;28;20037;-85
2021/12/20 07:31:15;;;;;;;14.90;2.50;;;1.70;99.90;;;;;;4976434;28;20510;-84
2021/12/20 07:33:42;;;;;;;18.55;2.83;;;1.40;99.90;;;;;;5011278;28;20103;-84
2021/12/20 07:36:09;;;;;;;12.38;2.63;;;2.70;99.90;;;;;;5027470;28;20034;-85
2021/12/20 07:38:35;;;;;;;17.85;2.95;;;1.30;99.90;;;;;;5011388;28;20517;-85
2021/12/20 07:41:02;;;;;;;11.57;2.53;;;1.30;99.90;;;;;;5011762;28;20072;-87
2021/12/20 07:43:28;;;;;;;16.02;2.78;;;3.10;99.90;;;;;;5011488;28;20041;-86
2021/12/20 07:45:54;;;;;;;12.40;2.92;;;1.80;99.90;;;;;;5011589;28;20069;-86
2021/12/20 07:48:21;;;;;;;16.70;2.97;;;1.30;99.90;;;;;;5011450;28;20069;-86
2021/12/20 07:50:47;;;;;;;15.82;3.13;;;1.30;99.90;;;;;;5027434;28;20078;-85
2021/12/20 07:53:15;;;;;;;14.45;3.20;;;2.20;99.90;;;;;;5011594;28;20261;-85
2021/12/20 07:55:46;;;;;;;14.82;3.08;;;3.00;99.90;;;;;;5011495;28;20038;-86
2021/12/20 07:58:13;;;;;;;11.70;3.10;;;1.10;99.90;;;;;;5012381;28;20037;-86
2021/12/20 08:00:38;;;;;;;18.27;3.63;;;1.30;99.90;;;;;;5010308;28;20502;-85
2021/12/20 08:03:04;;;;;;;18.85;3.58;;;1.20;99.90;;;;;;4993720;28;20037;-84
2021/12/20 08:05:30;;;;;;;14.98;3.80;;;1.40;99.90;;;;;;5008608;28;20045;-85
2021/12/20 08:07:56;;;;;;;12.68;3.13;;;1.20;99.90;;;;;;4978601;28;20071;-85
2021/12/20 08:10:25;;;;;;;18.15;4.07;;;;;;;;;;5011456;28;20045;-84
2021/12/20 08:12:52;;;;;;;11.55;3.08;;;1.20;99.90;;;;;;5010303;28;20401;-84
2021/12/20 08:15:19;;;;;;;12.25;3.00;;;1.30;99.90;;;;;;5021789;28;20037;-84
2021/12/20 08:17:47;;;;;;;18.83;3.22;;;1.20;99.90;;;;;;4990137;28;20041;-85
2021/12/20 08:20:13;;;;;;;18.17;3.88;;;1.20;99.90;;;;;;5009746;28;20044;-84
2021/12/20 08:22:40;;;;;;;12.60;3.35;;;1.20;99.90;;;;;;5010130;28;20041;-85
2021/12/20 08:25:07;;;;;;;21.33;4.32;;;1.20;99.90;;;;;;5011025;28;20049;-84
2021/12/20 08:27:33;;;;;;;20.77;4.28;;;1.20;99.90;;;;;;5011274;28;20076;-84
2021/12/20 08:29:59;;;;;;;15.52;3.65;;;2.80;99.90;;;;;;5010569;28;20037;-86
2021/12/20 08:32:25;;;;;;;15.52;4.00;;;1.30;99.90;;;;;;5010870;28;20044;-87
2021/12/20 08:34:51;;;;;;;16.52;3.80;;;1.30;99.90;;;;;;5010214;28;20042;-86
2021/12/20 08:37:17;;;;;;;17.02;3.97;;;1.30;99.90;;;;;;5015047;28;20047;-87
2021/12/20 08:39:43;;;;;;;17.52;3.50;;;2.00;99.90;;;;;;5014024;28;20115;-86
2021/12/20 08:42:09;;;;;;;16.70;4.22;;;1.40;99.90;;;;;;5047679;28;20561;-87
2021/12/20 08:44:35;;;;;;;15.07;4.47;;;1.40;99.90;;;;;;4981556;28;20044;-86
2021/12/20 08:47:01;;;;;;;21.38;4.97;;;1.50;99.90;;;;;;5013425;28;20490;-86
2021/12/20 08:49:27;;;;;;;15.68;4.70;;;1.50;99.90;;;;;;5031033;28;20034;-87
2021/12/20 08:51:55;;;;;;;14.00;4.55;;;1.60;99.90;;;;;;4998353;28;20502;-86
2021/12/20 08:54:23;;;;;;;15.98;4.95;;;2.50;99.90;;;;;;4996386;28;20034;-86
2021/12/20 08:56:49;;;;;;;18.02;4.93;;;3.20;99.90;;;;;;5030588;28;20116;-87
2021/12/20 08:59:15;;;;;;;19.33;5.75;;;1.70;99.90;;;;;;5012396;28;20141;-86
2021/12/20 09:01:40;;;;;;;16.92;4.35;;;2.80;99.90;;;;;;5009112;28;20041;-87
2021/12/20 09:04:07;;;;;;;13.60;4.00;;;2.10;99.90;;;;;;4997158;28;20038;-85
2021/12/20 09:06:38;;;;;;;13.65;3.25;;;1.90;99.90;;;;;;4997834;28;20034;-86
2021/12/20 09:09:06;;;;;;;12.80;3.03;;;3.30;99.90;;;;;;5014584;28;20487;-86
2021/12/20 09:11:33;;;;;;;9.13;2.50;;;2.00;99.90;;;;;;5012889;28;20056;-85
2021/12/20 09:13:59;;;;;;;13.13;2.92;;;2.00;99.90;;;;;;5024659;28;20037;-86
2021/12/20 09:16:25;;;;;;;13.30;2.80;;;2.40;99.90;;;;;;4994392;28;20108;-85
2021/12/20 09:18:51;;;;;;;11.18;2.50;;;2.20;99.90;;;;;;4989874;28;20034;-86
2021/12/20 09:21:17;;;;;;;8.48;2.30;;;2.20;99.90;;;;;;5013068;28;20045;-86
2021/12/20 09:23:43;;;;;;;11.40;1.95;;;2.30;99.90;;;;;;5008056;28;20040;-86
2021/12/20 09:26:09;;;;;;;7.78;2.20;;;2.20;99.90;;;;;;5007440;28;20045;-85
2021/12/20 09:28:35;;;;;;;9.32;1.70;;;0.70;99.90;;;;;;5011333;28;20041;-87
2021/12/20 09:31:03;;;;;;;5.65;1.75;;;2.50;99.90;;;;;;5001667;28;20092;-86
2021/12/20 09:33:29;;;;;;;5.95;1.73;;;2.50;99.90;;;;;;5012050;28;20029;-84
2021/12/20 09:35:54;;;;;;;6.57;1.80;;;2.50;99.90;;;;;;5012261;28;20051;-86
2021/12/20 09:38:21;;;;;;;6.15;1.77;;;2.60;99.90;;;;;;5029680;28;20541;-86
2021/12/20 09:43:45;;;;;;;10.18;1.98;;;2.70;99.90;;;;;;5029742;28;20533;-86
2021/12/20 09:46:11;;;;;;;11.23;2.60;;;2.80;99.90;;;;;;5013093;28;20037;-84
2021/12/20 09:48:37;;;;;;;12.30;2.88;;;2.80;99.90;;;;;;5000245;28;20049;-87
2021/12/20 09:51:05;;;;;;;12.07;2.63;;;2.80;99.90;;;;;;5008711;28;20037;-86
2021/12/20 09:53:31;;;;;;;11.45;2.53;;;2.90;99.90;;;;;;5012853;28;20041;-86
2021/12/20 09:55:59;;;;;;;13.75;3.30;;;3.00;99.90;;;;;;5001565;28;20091;-87
2021/12/20 09:58:26;;;;;;;17.00;3.20;;;3.00;99.90;;;;;;4996422;28;20029;-86
2021/12/20 10:00:53;;;;;;;13.70;2.88;;;4.80;99.90;;;;;;4992200;28;20064;-85
2021/12/20 10:03:23;;;;;;;15.88;3.00;;;4.30;99.90;;;;;;5011883;28;20142;-85
2021/12/20 10:05:54;;;;;;;11.90;2.55;;;3.30;99.90;;;;;;5029047;28;20051;-87
2021/12/20 10:08:26;;;;;;;14.25;3.00;;;3.30;99.90;;;;;;4995386;28;20038;-88
2021/12/20 10:10:52;;;;;;;17.77;3.70;;;3.90;99.90;;;;;;5023728;28;20037;-84
2021/12/20 10:13:23;;;;;;;23.17;4.72;;;3.50;99.90;;;;;;4995559;28;20033;-85
2021/12/20 10:15:50;;;;;;;19.85;4.20;;;3.50;99.90;;;;;;5013117;28;20461;-87
2021/12/20 10:18:16;;;;;;;18.23;4.43;;;3.60;99.90;;;;;;4993941;28;20103;-87
2021/12/20 10:20:52;;;;;;;19.85;4.80;;;3.70;99.90;;;;;;5011666;28;20045;-88
2021/12/20 10:23:23;;;;;;;18.25;4.55;;;3.80;99.90;;;;;;5012593;28;20041;-90
2021/12/20 10:25:52;;;;;;;20.60;4.43;;;3.90;99.90;;;;;;5000903;28;20041;-90
2021/12/20 10:28:24;;;;;;;22.48;4.85;;;4.30;99.90;;;;;;5012480;28;20037;-88
2021/12/20 10:30:55;;;;;;;19.48;4.35;;;4.00;99.90;;;;;;5010825;28;20519;-90
2021/12/20 10:33:22;;;;;;;20.52;5.00;;;4.70;99.90;;;;;;5013340;28;20080;-89
2021/12/20 10:35:53;;;;;;;26.30;5.65;;;4.20;99.90;;;;;;4997291;28;20033;-90
2021/12/20 10:38:21;;;;;;;22.73;5.20;;;4.30;99.90;;;;;;5005858;28;20099;-88
2021/12/20 10:41:12;;;;;;;22.10;5.22;;;4.90;99.90;;;;;;5012345;28;20041;-90
2021/12/20 10:43:49;;;;;;;18.83;5.78;;;4.40;99.90;;;;;;5012108;28;20037;-87
2021/12/20 10:46:26;;;;;;;20.70;4.80;;;4.50;99.90;;;;;;5011518;28;20125;-87
2021/12/20 10:49:04;;;;;;;20.58;4.80;;;4.60;99.90;;;;;;5010501;28;20083;-88
2021/12/20 10:51:34;;;;;;;19.90;4.88;;;4.60;99.90;;;;;;5011687;28;20041;-87
2021/12/20 10:54:03;;;;;;;20.20;5.00;;;4.70;99.90;;;;;;5011917;28;20494;-89
2021/12/20 10:56:31;;;;;;;20.25;4.55;;;4.70;99.90;;;;;;5012050;28;20036;-88
2021/12/20 10:58:59;;;;;;;18.38;4.38;;;5.90;99.90;;;;;;5010065;28;20047;-89
2021/12/20 11:04:12;;;;;;;19.60;4.68;;;6.20;99.90;;;;;;5011363;28;20476;-88
2021/12/20 11:06:55;;;;;;;19.33;4.60;;;4.90;99.90;;;;;;4994004;28;20041;-87
2021/12/20 11:09:22;;;;;;;17.37;4.93;;;5.80;99.90;;;;;;4958950;28;20588;-86
2021/12/20 11:11:50;;;;;;;19.15;5.10;;;5.00;99.90;;;;;;4976718;28;20402;-87
2021/12/20 11:14:18;;;;;;;23.15;4.75;;;5.00;99.90;;;;;;4995086;28;20042;-87
2021/12/20 11:16:50;;;;;;;21.85;4.80;;;5.10;99.90;;;;;;4996015;28;20045;-86
2021/12/20 11:19:38;;;;;;;17.60;4.72;;;5.10;99.90;;;;;;4990024;28;20041;-87
2021/12/20 11:22:08;;;;;;;19.13;4.70;;;6.30;99.90;;;;;;5012067;28;20544;-85
2021/12/20 11:24:42;;;;;;;21.98;5.25;;;5.20;99.90;;;;;;5011017;28;20041;-86
2021/12/20 11:27:12;;;;;;;23.60;7.60;;;5.20;99.90;;;;;;4992781;28;20049;-86
2021/12/20 11:29:39;;;;;;;19.65;6.28;;;5.30;99.90;;;;;;4989002;28;20041;-87
2021/12/20 11:32:07;;;;;;;17.00;6.13;;;5.50;99.90;;;;;;4994276;28;20502;-86
2021/12/20 11:34:34;;;;;;;24.42;6.20;;;5.40;99.90;;;;;;4995917;28;20041;-86
2021/12/20 11:37:00;;;;;;;19.30;5.40;;;6.50;99.90;;;;;;4994856;28;20041;-86
2021/12/20 11:39:26;;;;;;;20.50;5.28;;;5.50;99.90;;;;;;5011755;28;20116;-86
2021/12/20 11:41:52;;;;;;;20.38;4.95;;;5.60;99.90;;;;;;5011436;28;20425;-87
2021/12/20 11:44:21;;;;;;;17.25;5.22;;;5.60;99.90;;;;;;4995149;28;20044;-87
2021/12/20 11:47:14;;;;;;;21.77;5.32;;;7.00;99.90;;;;;;4994012;28;20033;-87
2021/12/20 11:49:40;;;;;;;23.33;5.75;;;5.60;99.90;;;;;;5006265;28;20584;-87
2021/12/20 11:52:15;;;;;;;21.95;5.78;;;5.70;99.90;;;;;;4982060;28;20116;-88
2021/12/20 11:54:52;;;;;;;24.90;7.40;;;5.70;99.90;;;;;;4995702;28;20456;-86
2021/12/20 11:57:35;;;;;;;21.80;6.85;;;5.70;99.90;;;;;;5011733;28;20103;-85
2021/12/20 12:00:06;;;;;;;18.20;6.50;;;5.80;99.90;;;;;;5001400;28;20128;-86
2021/12/20 12:02:38;;;;;;;18.10;5.68;;;5.80;99.90;;;;;;5010315;28;20524;-86
2021/12/20 12:05:15;;;;;;;15.43;4.70;;;5.90;99.90;;;;;;5011342;28;20025;-85
2021/12/20 12:07:41;;;;;;;14.50;4.80;;;5.90;99.90;;;;;;5011030;28;20117;-85
2021/12/20 12:10:16;;;;;;;19.65;5.35;;;7.10;99.90;;;;;;4994148;28;20053;-85
2021/12/20 12:12:44;;;;;;;17.27;4.95;;;6.00;99.90;;;;;;5030144;28;20527;-86
2021/12/20 12:15:32;;;;;;;17.48;5.05;;;6.00;99.90;;;;;;4997426;28;20033;-86
2021/12/20 12:18:00;;;;;;;18.13;4.78;;;6.10;99.90;;;;;;5012744;28;20427;-86
2021/12/20 12:20:35;;;;;;;12.25;3.70;;;6.80;99.90;;;;;;4995180;28;20129;-87
2021/12/20 12:23:13;;;;;;;11.75;3.33;;;7.70;99.90;;;;;;5014374;28;20512;-85
2021/12/20 12:25:43;;;;;;;10.25;3.05;;;6.80;99.90;;;;;;5025210;28;20037;-85
2021/12/20 12:28:11;;;;;;;9.38;2.60;;;6.10;99.90;;;;;;5013424;28;20143;-85
2021/12/20 12:30:36;;;;;;;13.93;2.83;;;7.40;99.90;;;;;;5013858;28;20045;-85
2021/12/20 12:33:02;;;;;;;8.35;2.10;;;6.20;99.90;;;;;;5015421;28;20048;-85
2021/12/20 12:35:37;;;;;;;8.63;2.35;;;6.20;99.90;;;;;;5014767;28;20411;-85
2021/12/20 12:38:21;;;;;;;7.57;1.73;;;6.20;99.90;;;;;;5015194;28;20040;-85
2021/12/20 12:41:08;;;;;;;7.95;1.80;;;6.20;99.90;;;;;;5012267;28;20504;-85
2021/12/20 12:43:50;;;;;;;8.73;2.20;;;7.00;99.90;;;;;;5014915;28;20045;-85
2021/12/20 12:46:36;;;;;;;6.87;2.20;;;7.20;99.90;;;;;;5014753;28;20049;-85
2021/12/20 12:49:20;;;;;;;11.27;2.10;;;6.20;99.90;;;;;;5014951;28;20045;-85
2021/12/20 12:52:07;;;;;;;11.73;2.97;;;7.00;99.90;;;;;;5021609;28;20042;-85
2021/12/20 12:54:32;;;;;;;10.90;2.33;;;7.50;99.90;;;;;;5007830;28;20560;-85
2021/12/20 12:57:21;;;;;;;8.05;1.90;;;6.20;99.90;;;;;;5014141;28;20116;-85
2021/12/20 12:59:50;;;;;;;10.40;1.90;;;7.40;99.90;;;;;;5005449;28;20085;-84
2021/12/20 13:02:23;;;;;;;8.88;1.90;;;7.00;99.90;;;;;;5009628;28;20085;-85
2021/12/20 13:04:55;;;;;;;4.68;1.58;;;6.20;99.90;;;;;;5015045;28;20042;-85
2021/12/20 13:07:25;;;;;;;9.70;1.83;;;6.20;99.90;;;;;;5012096;28;20448;-85
2021/12/20 13:09:53;;;;;;;7.38;1.70;;;6.80;99.90;;;;;;5010381;28;20034;-85
2021/12/20 13:17:39;;;;;;;7.28;1.70;;;6.10;99.90;;;;;;5041485;28;20095;-85